首页
METAR-TAF:

METAR-TAF

机场 :

阿纳姆, 荷兰

纬度: 52-04N, 经度: 005-53E, 海拔: 48米

当前天气观测

该预报发布于33分钟前的10:25 UTC
风速10节,风向南转南东,在西南之间变化
温度 8°C
湿度 87%
气压 1005 hPa
能见度10公里或以上
阴天层高于16000英尺

METAR: EHDL 221025Z AUTO 15010KT 100V220 9999 OVC160 08/06 Q1005 BLU

时间: 11:58 (10:58 UTC)

预报

该预报发布于17小时和53分钟前的17:05 UTC
预报有效从21日的 18点(UTC)到 22日的 06点(UTC)
风速5节,风向
能見度: 6000
成为
从 21日的 18点(UTC)到 21日的 21点(UTC)
能見度: 4000
轻雾

TAF: EHDL 211705Z 2118/2206 10005KT 6000 NSC BECMG 2118/2121 4000 BR

超过4000个机场的气象观测和天气预报(METAR&TAF报告)。

可查询的气象台以黄色和红色小点在地图上表示。

将鼠标移到小点上方,可查看气象台名称。

然后点击查看天气观测和预报。

如需切换地图:点击带黑十字的绿色按钮放大地图;点击带横线的绿色按钮缩小地图;或者点击绿色箭头查看邻近地区的地图。


METAR-TAF: